Sunday, December 8, 2019, 9:31 PM GMT
Back to Local

CYHU, Saint Hubert Airport

Location: , , Canada Lat: 45.517
Local Time: 9:31 PM GMT (21:31 GMT) Lon: -73.417
Time Zone: GMT Elev: 88 ft

Show me the last for .
Show Decoded

2019-12-08 21:00 METAR CYHU 082100Z AUTO 18021G28KT 9SM OVC095 M02/M08 A3007 RMK SLP188 =
2019-12-08 20:00 METAR CYHU 082000Z AUTO 17015G24KT 9SM BKN070 OVC082 M02/M07 A3013 RMK SLP206 =
2019-12-08 19:00 METAR CYHU 081900Z AUTO 16010G17KT 9SM OVC050 M02/M06 A3016 RMK PRESFR SLP218 =
2019-12-08 18:00 METAR CYHU 081800Z AUTO 17015G25KT 9SM BKN065 OVC076 M03/M07 A3021 RMK PRESFR
                 SLP233 =
2019-12-08 17:00 METAR CYHU 081700Z AUTO 17016G21KT 9SM BKN095 M03/M07 A3026 RMK SLP249 =
2019-12-08 16:00 METAR CYHU 081600Z AUTO 18014G19KT 9SM FEW080 SCT110 SCT160 M04/M08 A3029 RMK
                 SLP262 =
2019-12-08 15:00 METAR CYHU 081500Z AUTO 17011KT 9SM FEW100 M05/M08 A3033 RMK SLP274 =
2019-12-08 14:00 METAR CYHU 081400Z AUTO 18013G19KT 9SM FEW130 M06/M09 A3035 RMK SLP281 =
2019-12-08 13:00 METAR CYHU 081300Z AUTO 18008KT 9SM BKN150 M08/M10 A3036 RMK SLP285 =
2019-12-08 12:49 METAR CYHU 081249Z AUTO 17007KT 9SM SCT150 M10/M12 A3036 RMK SLP283 =
2019-12-08 12:26 METAR CYHU 081226Z AUTO 14005KT 9SM -SN FEW170 SCT190 M11/M13 A3037 RMK SLP287 =
2019-12-08 12:00 METAR CYHU 081200Z AUTO 15005KT 9SM BKN170 OVC190 M11/M13 A3038 RMK SLP291 =
2019-12-08 11:00 METAR CYHU 081100Z AUTO 17007KT 9SM FEW190 M11/M14 A3040 RMK SLP298 =
2019-12-08 10:00 METAR CYHU 081000Z AUTO 19002KT 9SM CLR M11/M14 A3042 RMK SLP303 =
2019-12-08 09:00 METAR CYHU 080900Z AUTO 17006KT 9SM CLR M12/M14 A3042 RMK SLP304 =
2019-12-08 08:00 METAR CYHU 080800Z AUTO 18007KT 9SM FEW010 M11/M13 A3044 RMK SLP310 =
2019-12-08 07:43 METAR CYHU 080743Z AUTO 19007KT 9SM SCT010 M11/M13 A3044 RMK SLP310 =
2019-12-08 07:16 METAR CYHU 080716Z AUTO 18003KT 9SM BKN010 M12/M13 A3045 RMK SLP314 =
2019-12-08 07:00 METAR CYHU 080700Z AUTO 16004KT 9SM FEW012 M12/M14 A3044 RMK SLP313 =
2019-12-08 06:00 METAR CYHU 080600Z AUTO 18006KT 9SM CLR M11/M13 A3043 RMK SLP309 =
2019-12-08 05:00 METAR CYHU 080500Z AUTO 24005KT 9SM CLR M09/M13 A3043 RMK SLP307 =
2019-12-08 04:00 METAR CYHU 080400Z AUTO 26009KT 9SM CLR M08/M12 A3043 RMK SLP308 =
2019-12-08 03:00 METAR CYHU 080300Z AUTO 24008KT 9SM CLR M09/M13 A3042 RMK SLP303 =
2019-12-08 02:00 METAR CYHU 080200Z AUTO 23008KT 9SM CLR M08/M12 A3041 RMK SLP302 =
2019-12-08 01:00 METAR CYHU 080100Z AUTO 25008KT 9SM CLR M07/M12 A3041 RMK SLP301 =
2019-12-08 00:00 METAR CYHU 080000Z AUTO 25009KT 9SM CLR M07/M11 A3040 RMK SLP298 =
2019-12-07 23:00 METAR CYHU 072300Z AUTO 26009KT 9SM CLR M07/M11 A3039 RMK SLP295 =
2019-12-07 22:00 METAR CYHU 072200Z AUTO 25006KT 9SM CLR M06/M12 A3038 RMK SLP291 =

Support USWX by starting your Amazon purchase here.